Detall de PIREP

Printer-friendly versionPDF version

[2013/05/30 10:26:00]
Flight IATA:CT3233
Pilot Number:042
Company ICAO:CAT
Aircraft Type:B738/F
PAX:128
Departing Airport: LEMD
Destination Airport: LEPA
Alternate Airport:LEBL
Online: VATSIM
Route:NANDO UM871 GODOX
Flight Level:F300
No Slew and time accel
No pause
Crash detect
Detect pilot in Cockpit between each 30 and 45 minutes
10:26 Zero fuel Weight: 115601 Lbs, Fuel Weight: 37667 Lbs
10:26 VATSIM:LEMD 301000Z 35005KT 260V070 9999 SCT045 15/03 Q1019 NOSIG
10:26 VATSIM:LEPA 301000Z 33011KT 290V010 9999 FEW020 18/07 Q1013 NOSIG
10:26 VOICE CATALONIAN
10:29 Parking Brakes off
10:39 Take-off
10:39 Take off Weight: 152290 Lbs
10:39 Wind: 241º @ 015 Knots Heading: 357º
10:39 POS N40º 30´ 45´´ W003º 34´ 28´´
10:39 Gear Up: 155 Knots
10:39 Flaps:5 at 155 Knots
10:40 Flaps:4 at 161 Knots
10:40 Flaps:3 at 162 Knots
10:41 Flaps:2 at 158 Knots
10:43 Flaps:0 at 199 Knots
10:54 Wind:298º@066 Knots Heading: 104º Ground Speed: 519 Knots Altitude 27365 ft
10:55 TOC
10:55 Fuel Weight: 33035 Lb
11:09 Wind:302º@051 Knots Heading: 082º Ground Speed: 504 Knots Altitude 30052 ft
11:20 TOD
11:20 Fuel Weight: 30655 Lb
11:24 Wind:311º@056 Knots Heading: 064º Ground Speed: 466 Knots Altitude 25003 ft
11:39 Wind:315º@020 Knots Heading: 087º Ground Speed: 259 Knots Altitude 7575 ft
11:42 Flaps:1 at 227 Knots
11:43 Flaps:2 at 222 Knots
11:43 Flaps:3 at 202 Knots
11:44 Gear Down: 157 Knots
11:44 Flaps:4 at 157 Knots
11:44 Flaps:5 at 157 Knots
11:44 Flaps:6 at 161 Knots
11:44 Flaps:7 at 160 Knots
11:44 Flaps:8 at 160 Knots
11:48 TouchDown:Rate -120 ft/min Speed: 135 Knots
11:48 VATSIM:LEPA 301130Z 32015KT 290V350 9999 FEW020 19/07 Q1013 NOSIG
11:48 Land
11:48 Wind:229º@008 Knots
11:48 Heading: 237º
11:48 Flight Duration: 01:09
11:48Landing Weight: 144476 Lbs
11:48 POS N39º 32´ 58´´ E002º 44´ 55´´
11:53 Parking brakes on
11:53 Block to Block Duration: 01:24
11:53 Final Fuel: 28324 Lbls
11:53 Spent Fuel: 9343 Lbls
11:53 Flight Length: 336 NM
11:53 TOD Land Length: 109 NM

Exportar CSV

Powered by Drupal - Modified by Danger4k